createdAt,value
2018-10-03T00:00:33.628Z,10.68
2018-10-03T00:03:03.305Z,10.63
2018-10-03T00:05:31.835Z,10.73
2018-10-03T00:08:00.378Z,10.71
2018-10-03T00:10:28.928Z,10.73
2018-10-03T00:12:57.464Z,10.73
2018-10-03T00:15:26.059Z,10.76
2018-10-03T00:17:54.614Z,10.78
2018-10-03T00:20:23.109Z,10.81
2018-10-03T00:22:51.721Z,10.77
2018-10-03T00:25:20.274Z,10.83
2018-10-03T00:27:48.763Z,10.87
2018-10-03T00:30:17.269Z,10.80
2018-10-03T00:32:46.149Z,10.77
2018-10-03T00:35:14.671Z,10.86
2018-10-03T00:37:43.438Z,10.83
2018-10-03T00:40:13.125Z,10.79
2018-10-03T00:42:41.668Z,10.70
2018-10-03T00:45:10.200Z,10.71
2018-10-03T00:47:38.767Z,10.75
2018-10-03T00:50:07.294Z,10.77
2018-10-03T00:52:35.847Z,10.90
2018-10-03T00:55:05.236Z,10.75
2018-10-03T00:57:34.720Z,10.88
2018-10-03T01:00:04.723Z,10.74
2018-10-03T01:02:33.370Z,10.72
2018-10-03T01:05:02.755Z,10.66
2018-10-03T01:07:31.265Z,10.71
2018-10-03T01:09:59.785Z,10.67
2018-10-03T01:12:28.265Z,10.78
2018-10-03T01:14:57.188Z,10.63
2018-10-03T01:17:25.733Z,10.69
2018-10-03T01:19:54.269Z,10.67
2018-10-03T01:22:22.796Z,10.76
2018-10-03T01:24:51.365Z,10.73
2018-10-03T01:27:19.841Z,10.76
2018-10-03T01:29:48.367Z,10.85
2018-10-03T01:32:17.253Z,10.80
2018-10-03T01:34:45.709Z,10.83
2018-10-03T01:37:14.205Z,10.84
2018-10-03T01:39:42.736Z,10.84
2018-10-03T01:42:11.238Z,10.82
2018-10-03T01:44:39.958Z,10.72
2018-10-03T01:47:08.484Z,10.80
2018-10-03T01:49:36.971Z,10.81
2018-10-03T01:52:05.482Z,10.83
2018-10-03T01:54:34.036Z,10.78
2018-10-03T01:57:04.176Z,10.85
2018-10-03T01:59:32.758Z,10.89
2018-10-03T02:02:02.828Z,10.76
2018-10-03T02:04:31.424Z,10.82
2018-10-03T02:06:59.969Z,10.78
2018-10-03T02:09:28.573Z,10.78
2018-10-03T02:11:57.088Z,10.78
2018-10-03T02:14:25.593Z,10.83
2018-10-03T02:16:54.330Z,10.84
2018-10-03T02:19:22.829Z,10.66
2018-10-03T02:21:51.424Z,10.65
2018-10-03T02:24:20.482Z,10.72
2018-10-03T02:26:49.048Z,10.76
2018-10-03T02:29:17.668Z,10.69
2018-10-03T02:31:46.188Z,10.76
2018-10-03T02:34:14.717Z,10.63
2018-10-03T02:36:43.557Z,10.74
2018-10-03T02:39:12.075Z,10.64
2018-10-03T02:41:40.625Z,10.78
2018-10-03T02:44:09.169Z,10.77
2018-10-03T02:46:37.769Z,10.76
2018-10-03T02:49:06.399Z,10.65
2018-10-03T02:51:35.143Z,10.69
2018-10-03T02:54:05.285Z,10.78
2018-10-03T02:56:33.821Z,10.66
2018-10-03T02:59:07.236Z,10.73
2018-10-03T03:01:35.760Z,10.66
2018-10-03T03:04:05.180Z,10.68
2018-10-03T03:06:33.657Z,10.72
2018-10-03T03:09:07.005Z,10.70
2018-10-03T03:11:35.522Z,10.82
2018-10-03T03:14:04.254Z,10.86
2018-10-03T03:16:32.797Z,10.75
2018-10-03T03:19:02.907Z,10.66
2018-10-03T03:21:31.446Z,10.64
2018-10-03T03:23:59.945Z,10.70
2018-10-03T03:26:28.471Z,10.66
2018-10-03T03:28:57.215Z,10.56
2018-10-03T03:31:26.023Z,10.53
2018-10-03T03:33:54.507Z,10.49
2018-10-03T03:36:22.986Z,10.53
2018-10-03T03:38:51.492Z,10.49
2018-10-03T03:41:20.037Z,10.49
2018-10-03T03:43:48.580Z,10.39
2018-10-03T03:46:17.208Z,10.34
2018-10-03T03:48:45.736Z,10.36
2018-10-03T03:51:14.547Z,10.25
2018-10-03T03:53:43.073Z,10.24
2018-10-03T03:56:11.605Z,10.23
2018-10-03T03:58:40.431Z,10.21
2018-10-03T04:01:08.928Z,10.23
2018-10-03T04:03:37.430Z,10.27
2018-10-03T04:06:05.940Z,10.25
2018-10-03T04:08:34.472Z,10.30
2018-10-03T04:11:05.237Z,10.38
2018-10-03T04:13:33.717Z,10.40
2018-10-03T04:16:04.092Z,10.38
2018-10-03T04:18:32.588Z,10.45
2018-10-03T04:21:03.598Z,10.45
2018-10-03T04:23:32.087Z,10.53
2018-10-03T04:26:00.611Z,10.51
2018-10-03T04:28:29.224Z,10.64
2018-10-03T04:30:57.729Z,10.63
2018-10-03T04:33:26.249Z,10.59
2018-10-03T04:35:54.771Z,10.64
2018-10-03T04:38:23.244Z,10.47
2018-10-03T04:40:51.762Z,10.56
2018-10-03T04:43:20.564Z,10.56
2018-10-03T04:45:49.078Z,10.50
2018-10-03T04:48:17.668Z,10.65
2018-10-03T04:50:46.214Z,10.71
2018-10-03T04:53:15.926Z,10.68
2018-10-03T04:55:44.447Z,10.69
2018-10-03T04:58:12.953Z,10.82
2018-10-03T05:00:41.938Z,10.87
2018-10-03T05:03:10.746Z,10.93
2018-10-03T05:05:39.232Z,10.92
2018-10-03T05:08:07.980Z,11.00
2018-10-03T05:10:36.522Z,10.99
2018-10-03T05:13:05.583Z,10.99
2018-10-03T05:15:34.485Z,10.97
2018-10-03T05:18:04.958Z,11.05
2018-10-03T05:20:34.721Z,11.05
2018-10-03T05:23:05.783Z,10.94
2018-10-03T05:25:34.317Z,11.07
2018-10-03T05:28:05.230Z,11.06
2018-10-03T05:30:33.820Z,11.04
2018-10-03T05:33:04.195Z,11.07
2018-10-03T05:35:32.740Z,10.90
2018-10-03T05:38:02.821Z,10.84
2018-10-03T05:40:31.478Z,10.85
2018-10-03T05:43:00.006Z,10.86
2018-10-03T05:45:28.596Z,10.99
2018-10-03T05:47:57.112Z,10.88
2018-10-03T05:50:25.649Z,10.86
2018-10-03T05:52:54.176Z,10.83
2018-10-03T05:55:22.671Z,10.99
2018-10-03T05:57:51.271Z,10.94
2018-10-03T06:00:19.858Z,11.02
2018-10-03T06:02:48.570Z,11.06
2018-10-03T06:05:17.105Z,11.05
2018-10-03T06:07:45.605Z,11.02
2018-10-03T06:10:14.088Z,11.08
2018-10-03T06:12:42.581Z,11.17
2018-10-03T06:15:11.139Z,11.05
2018-10-03T06:17:39.682Z,11.14
2018-10-03T06:20:09.191Z,11.05
2018-10-03T06:22:38.389Z,11.07
2018-10-03T06:25:06.981Z,11.07
2018-10-03T06:27:35.474Z,11.00
2018-10-03T06:30:05.710Z,10.93
2018-10-03T06:32:34.342Z,10.88
2018-10-03T06:35:04.648Z,10.78
2018-10-03T06:37:33.245Z,10.87
2018-10-03T06:40:02.929Z,10.83
2018-10-03T06:42:31.536Z,10.94
2018-10-03T06:45:00.085Z,10.87
2018-10-03T06:47:28.583Z,10.84
2018-10-03T06:49:57.123Z,10.83
2018-10-03T06:52:25.803Z,11.00
2018-10-03T06:54:54.563Z,10.91
2018-10-03T06:57:23.090Z,11.02
2018-10-03T06:59:51.642Z,11.11
2018-10-03T07:02:20.116Z,11.03
2018-10-03T07:04:48.737Z,10.94
2018-10-03T07:07:17.252Z,11.06
2018-10-03T07:09:45.777Z,11.15
2018-10-03T07:12:14.417Z,10.96
2018-10-03T07:14:42.971Z,11.02
2018-10-03T07:17:11.453Z,11.21
2018-10-03T07:19:40.012Z,11.22
2018-10-03T07:22:08.929Z,11.22
2018-10-03T07:24:37.760Z,11.28
2018-10-03T07:27:06.399Z,11.36
2018-10-03T07:29:35.031Z,11.52
2018-10-03T07:32:05.904Z,11.50
2018-10-03T07:34:34.444Z,11.51
2018-10-03T07:37:04.536Z,11.60
2018-10-03T07:39:33.231Z,11.72
2018-10-03T07:42:03.826Z,11.80
2018-10-03T07:44:32.424Z,11.88
2018-10-03T07:47:03.433Z,11.96
2018-10-03T07:49:32.187Z,12.19
2018-10-03T07:52:00.714Z,12.16
2018-10-03T07:54:29.336Z,12.24
2018-10-03T07:56:58.264Z,12.28
2018-10-03T07:59:27.300Z,12.19
2018-10-03T08:01:56.220Z,12.23
2018-10-03T08:04:24.749Z,12.29
2018-10-03T08:06:53.284Z,12.36
2018-10-03T08:09:24.933Z,12.42
2018-10-03T08:11:53.445Z,12.46
2018-10-03T08:14:21.962Z,12.40
2018-10-03T08:16:50.431Z,12.65
2018-10-03T08:19:19.079Z,12.64
2018-10-03T08:21:47.810Z,12.76
2018-10-03T08:24:16.322Z,12.72
2018-10-03T08:26:44.858Z,12.77
2018-10-03T08:29:13.482Z,12.80
2018-10-03T08:31:42.038Z,12.88
2018-10-03T08:34:10.858Z,12.93
2018-10-03T08:36:39.444Z,13.02
2018-10-03T08:39:10.913Z,13.08
2018-10-03T08:41:39.433Z,13.00
2018-10-03T08:44:08.226Z,13.16
2018-10-03T08:46:36.761Z,13.24
2018-10-03T08:49:06.065Z,13.20
2018-10-03T08:51:34.712Z,13.50
2018-10-03T08:54:04.881Z,13.47
2018-10-03T08:56:33.401Z,13.68
2018-10-03T08:59:02.895Z,13.69
2018-10-03T09:01:31.428Z,13.36
2018-10-03T09:03:59.930Z,13.54
2018-10-03T09:06:28.565Z,13.55
2018-10-03T09:08:57.137Z,13.62
2018-10-03T09:11:26.936Z,13.39
2018-10-03T09:13:55.422Z,13.40
2018-10-03T09:16:23.952Z,13.60
2018-10-03T09:18:52.461Z,13.61
2018-10-03T09:21:20.995Z,13.69
2018-10-03T09:23:49.511Z,13.91
2018-10-03T09:26:18.107Z,13.87
2018-10-03T09:28:46.758Z,13.81
2018-10-03T09:31:16.151Z,14.01
2018-10-03T09:33:44.800Z,13.98
2018-10-03T09:36:14.329Z,14.06
2018-10-03T09:38:42.841Z,14.09
2018-10-03T09:41:11.364Z,14.22
2018-10-03T09:43:39.996Z,14.26
2018-10-03T09:46:08.920Z,14.33
2018-10-03T09:48:37.472Z,14.27
2018-10-03T09:51:06.001Z,14.34
2018-10-03T09:53:34.795Z,14.40
2018-10-03T09:56:05.108Z,14.28
2018-10-03T09:58:33.579Z,14.28
2018-10-03T10:01:09.286Z,14.54
2018-10-03T10:03:37.783Z,14.34
2018-10-03T10:06:06.394Z,14.68
2018-10-03T10:08:35.062Z,14.61
2018-10-03T10:11:05.225Z,14.47
2018-10-03T10:13:33.932Z,14.21
2018-10-03T10:16:03.745Z,14.36
2018-10-03T10:18:32.261Z,14.42
2018-10-03T10:21:00.785Z,14.47
2018-10-03T10:23:29.316Z,14.88
2018-10-03T10:25:57.816Z,14.79
2018-10-03T10:28:26.404Z,14.83
2018-10-03T10:30:54.912Z,14.98
2018-10-03T10:33:23.427Z,15.14
2018-10-03T10:35:52.038Z,14.93
2018-10-03T10:38:20.574Z,14.62
2018-10-03T10:40:49.146Z,14.64
2018-10-03T10:43:18.008Z,14.92
2018-10-03T10:45:46.861Z,15.01
2018-10-03T10:48:15.496Z,15.17
2018-10-03T10:50:44.056Z,15.29
2018-10-03T10:53:12.624Z,15.09
2018-10-03T10:55:41.194Z,15.25
2018-10-03T10:58:09.728Z,15.14
2018-10-03T11:00:38.691Z,15.37
2018-10-03T11:03:07.273Z,15.34
2018-10-03T11:05:35.857Z,15.38
2018-10-03T11:08:05.665Z,15.27
2018-10-03T11:10:34.144Z,15.17
2018-10-03T11:13:04.157Z,15.15
2018-10-03T11:15:32.785Z,15.46
2018-10-03T11:18:03.165Z,15.50
2018-10-03T11:20:31.729Z,15.31
2018-10-03T11:23:00.217Z,15.67
2018-10-03T11:25:28.793Z,15.58
2018-10-03T11:27:57.308Z,15.63
2018-10-03T11:30:25.915Z,16.10
2018-10-03T11:32:56.326Z,15.93
2018-10-03T11:35:25.560Z,16.36
2018-10-03T11:37:54.135Z,16.12
2018-10-03T11:40:22.865Z,16.01
2018-10-03T11:42:51.465Z,15.73
2018-10-03T11:45:20.031Z,15.98
2018-10-03T11:47:48.671Z,15.51
2018-10-03T11:50:17.265Z,15.51
2018-10-03T11:52:47.105Z,16.01
2018-10-03T11:55:15.625Z,16.37
2018-10-03T11:57:44.154Z,15.96
2018-10-03T12:00:12.697Z,15.70
2018-10-03T12:02:41.496Z,15.90
2018-10-03T12:05:10.037Z,15.86
2018-10-03T12:07:38.706Z,16.52
2018-10-03T12:10:07.925Z,16.90
2018-10-03T12:12:36.470Z,17.26
2018-10-03T12:15:06.926Z,17.28
2018-10-03T12:17:35.440Z,17.72
2018-10-03T12:20:05.303Z,16.30
2018-10-03T12:22:34.203Z,16.36
2018-10-03T12:25:03.774Z,15.97
2018-10-03T12:27:32.424Z,15.48
2018-10-03T12:30:02.697Z,16.21
2018-10-03T12:32:31.246Z,17.28
2018-10-03T12:34:59.753Z,17.03
2018-10-03T12:37:28.307Z,17.77
2018-10-03T12:39:57.167Z,17.20
2018-10-03T12:42:26.230Z,17.59
2018-10-03T12:44:54.814Z,16.60
2018-10-03T12:47:23.333Z,17.09
2018-10-03T12:49:51.852Z,16.71
2018-10-03T12:52:20.423Z,17.98
2018-10-03T12:54:48.967Z,17.67
2018-10-03T12:57:17.863Z,17.75
2018-10-03T12:59:46.459Z,18.13
2018-10-03T13:02:15.024Z,18.10
2018-10-03T13:04:43.920Z,17.68
2018-10-03T13:07:12.426Z,17.86
2018-10-03T13:09:42.720Z,18.02
2018-10-03T13:12:11.807Z,18.21
2018-10-03T13:14:40.288Z,18.43
2018-10-03T13:17:08.789Z,18.56
2018-10-03T13:19:37.636Z,18.00
2018-10-03T13:22:06.190Z,18.19
2018-10-03T13:24:34.782Z,18.83
2018-10-03T13:27:04.842Z,18.61
2018-10-03T13:29:33.474Z,17.76
2018-10-03T13:32:02.728Z,18.45
2018-10-03T13:34:31.341Z,18.91
2018-10-03T13:36:59.856Z,18.50
2018-10-03T13:39:28.344Z,18.04
2018-10-03T13:41:57.100Z,18.62
2018-10-03T13:44:25.625Z,18.20
2018-10-03T13:46:54.142Z,17.95
2018-10-03T13:49:22.701Z,18.45
2018-10-03T13:51:51.215Z,16.74
2018-10-03T13:54:19.733Z,18.38
2018-10-03T13:56:48.257Z,18.28
2018-10-03T13:59:16.823Z,17.60
2018-10-03T14:01:45.614Z,16.64
2018-10-03T14:04:14.150Z,17.23
2018-10-03T14:06:42.690Z,17.33
2018-10-03T14:09:11.929Z,17.82
2018-10-03T14:11:40.890Z,17.26
2018-10-03T14:14:09.709Z,18.85
2018-10-03T14:16:38.204Z,18.50
2018-10-03T14:19:06.726Z,17.46
2018-10-03T14:21:35.438Z,17.36
2018-10-03T14:24:05.427Z,16.75
2018-10-03T14:26:33.920Z,16.52
2018-10-03T14:29:03.763Z,16.40
2018-10-03T14:31:32.283Z,16.45
2018-10-03T14:34:00.753Z,16.52
2018-10-03T14:36:29.310Z,16.38
2018-10-03T14:38:57.872Z,15.99
2018-10-03T14:41:28.246Z,16.14
2018-10-03T14:43:56.770Z,15.82
2018-10-03T14:46:25.711Z,15.71
2018-10-03T14:48:54.273Z,16.39
2018-10-03T14:51:22.781Z,16.39
2018-10-03T14:53:51.360Z,17.66
2018-10-03T14:56:19.872Z,17.40
2018-10-03T14:58:48.457Z,16.87
2018-10-03T15:01:17.353Z,17.44
2018-10-03T15:03:45.824Z,17.06
2018-10-03T15:06:14.469Z,16.52
2018-10-03T15:08:43.387Z,16.43
2018-10-03T15:11:11.881Z,16.02
2018-10-03T15:13:40.409Z,15.75
2018-10-03T15:16:09.216Z,15.73
2018-10-03T15:18:37.999Z,15.43
2018-10-03T15:21:06.534Z,15.38
2018-10-03T15:23:35.016Z,15.23
2018-10-03T15:26:05.260Z,15.31
2018-10-03T15:28:33.821Z,15.20
2018-10-03T15:31:04.429Z,15.01
2018-10-03T15:33:33.014Z,14.81
2018-10-03T15:36:03.176Z,14.98
2018-10-03T15:38:31.721Z,14.97
2018-10-03T15:41:07.619Z,14.72
2018-10-03T15:43:36.390Z,14.65
2018-10-03T15:46:06.623Z,14.74
2018-10-03T15:48:36.006Z,14.63
2018-10-03T15:51:05.105Z,14.41
2018-10-03T15:53:33.667Z,14.51
2018-10-03T15:56:04.713Z,14.70
2018-10-03T15:58:33.357Z,14.55
2018-10-03T16:01:03.177Z,14.58
2018-10-03T16:03:31.681Z,14.55
2018-10-03T16:06:00.264Z,14.55
2018-10-03T16:08:28.940Z,14.41
2018-10-03T16:10:57.602Z,14.43
2018-10-03T16:13:26.168Z,14.53
2018-10-03T16:15:55.146Z,14.79
2018-10-03T16:18:23.828Z,15.03
2018-10-03T16:20:52.376Z,15.27
2018-10-03T16:23:20.874Z,15.11
2018-10-03T16:25:49.449Z,14.83
2018-10-03T16:28:18.042Z,14.66
2018-10-03T16:30:46.633Z,14.57
2018-10-03T16:33:15.147Z,14.37
2018-10-03T16:35:43.749Z,14.23
2018-10-03T16:38:12.348Z,14.08
2018-10-03T16:40:40.872Z,13.88
2018-10-03T16:43:09.443Z,13.96
2018-10-03T16:45:39.791Z,13.87
2018-10-03T16:48:08.311Z,13.75
2018-10-03T16:50:36.860Z,13.63
2018-10-03T16:53:06.119Z,13.61
2018-10-03T16:55:34.687Z,13.46
2018-10-03T16:58:05.591Z,13.46
2018-10-03T17:00:36.461Z,13.34
2018-10-03T17:03:06.353Z,13.35
2018-10-03T17:05:36.198Z,13.35
2018-10-03T17:08:05.372Z,13.26
2018-10-03T17:10:34.344Z,13.26
2018-10-03T17:13:04.512Z,13.09
2018-10-03T17:15:33.007Z,13.16
2018-10-03T17:18:03.090Z,13.07
2018-10-03T17:20:31.686Z,13.10
2018-10-03T17:23:00.177Z,13.05
2018-10-03T17:25:28.744Z,12.87
2018-10-03T17:27:57.903Z,12.78
2018-10-03T17:30:26.449Z,12.71
2018-10-03T17:32:55.245Z,12.76
2018-10-03T17:35:24.015Z,12.77
2018-10-03T17:37:52.590Z,12.74
2018-10-03T17:40:21.230Z,12.71
2018-10-03T17:42:49.842Z,12.81
2018-10-03T17:45:18.537Z,12.58
2018-10-03T17:47:47.135Z,12.47
2018-10-03T17:50:15.808Z,12.43
2018-10-03T17:52:44.457Z,12.59
2018-10-03T17:55:13.002Z,12.67
2018-10-03T17:57:41.555Z,12.70
2018-10-03T18:00:10.520Z,12.58
2018-10-03T18:02:39.419Z,12.41
2018-10-03T18:05:08.088Z,12.39
2018-10-03T18:07:37.808Z,12.54
2018-10-03T18:10:07.100Z,12.41
2018-10-03T18:12:37.144Z,12.63
2018-10-03T18:15:06.616Z,12.59
2018-10-03T18:17:35.184Z,12.61
2018-10-03T18:20:06.471Z,12.47
2018-10-03T18:22:35.114Z,12.34
2018-10-03T18:25:07.912Z,12.17
2018-10-03T18:27:36.619Z,12.06
2018-10-03T18:30:07.599Z,11.86
2018-10-03T18:32:36.265Z,11.61
2018-10-03T18:35:07.943Z,11.44
2018-10-03T18:37:36.595Z,11.34
2018-10-03T18:40:05.342Z,11.35
2018-10-03T18:42:34.920Z,11.18
2018-10-03T18:45:06.779Z,11.28
2018-10-03T18:47:35.325Z,10.97
2018-10-03T18:50:07.140Z,10.74
2018-10-03T18:52:35.758Z,10.55
2018-10-03T18:55:06.318Z,10.41
2018-10-03T18:57:34.992Z,10.28
2018-10-03T19:00:07.356Z,10.23
2018-10-03T19:02:36.002Z,10.10
2018-10-03T19:05:05.858Z,10.06
2018-10-03T19:07:34.575Z,10.00
2018-10-03T19:10:05.357Z,9.89
2018-10-03T19:12:34.474Z,9.90
2018-10-03T19:15:07.236Z,9.77
2018-10-03T19:17:35.897Z,9.73
2018-10-03T19:20:08.093Z,9.68
2018-10-03T19:22:36.683Z,9.76
2018-10-03T19:25:06.807Z,9.67
2018-10-03T19:27:35.451Z,9.66
2018-10-03T19:30:05.458Z,9.70
2018-10-03T19:32:34.098Z,9.53
2018-10-03T19:35:06.147Z,9.56
2018-10-03T19:37:35.591Z,9.53
2018-10-03T19:40:06.511Z,9.61
2018-10-03T19:42:35.424Z,9.69
2018-10-03T19:45:05.960Z,9.62
2018-10-03T19:47:34.674Z,9.62
2018-10-03T19:50:05.496Z,9.59
2018-10-03T19:52:34.380Z,9.95
2018-10-03T19:55:05.104Z,10.00
2018-10-03T19:57:34.355Z,10.03
2018-10-03T20:00:05.509Z,10.02
2018-10-03T20:02:34.131Z,10.05
2018-10-03T20:05:05.510Z,10.01
2018-10-03T20:07:34.800Z,9.99
2018-10-03T20:10:05.523Z,10.02
2018-10-03T20:12:34.533Z,10.06
2018-10-03T20:15:05.217Z,10.00
2018-10-03T20:17:33.796Z,10.02
2018-10-03T20:20:04.816Z,10.11
2018-10-03T20:22:33.416Z,10.24
2018-10-03T20:25:03.651Z,10.22
2018-10-03T20:27:32.324Z,10.24
2018-10-03T20:30:03.010Z,10.36
2018-10-03T20:32:32.050Z,10.39
2018-10-03T20:35:00.678Z,10.51
2018-10-03T20:37:29.224Z,10.50
2018-10-03T20:39:57.855Z,10.39
2018-10-03T20:42:26.547Z,10.41
2018-10-03T20:44:55.090Z,10.47
2018-10-03T20:47:23.682Z,10.40
2018-10-03T20:49:52.516Z,10.27
2018-10-03T20:52:21.114Z,10.15
2018-10-03T20:54:50.038Z,10.07
2018-10-03T20:57:18.588Z,10.03
2018-10-03T20:59:47.153Z,9.94
2018-10-03T21:02:15.813Z,10.03
2018-10-03T21:04:44.522Z,9.87
2018-10-03T21:07:13.071Z,9.84
2018-10-03T21:09:41.957Z,9.84
2018-10-03T21:12:17.369Z,9.65
2018-10-03T21:14:45.879Z,9.60
2018-10-03T21:17:14.373Z,9.54
2018-10-03T21:19:42.900Z,9.53
2018-10-03T21:22:11.422Z,9.50
2018-10-03T21:24:40.006Z,9.58
2018-10-03T21:27:09.398Z,9.76
2018-10-03T21:29:37.925Z,9.79
2018-10-03T21:32:06.613Z,9.85
2018-10-03T21:34:35.122Z,9.97
2018-10-03T21:37:06.369Z,10.00
2018-10-03T21:39:38.800Z,10.19
2018-10-03T21:42:07.377Z,10.19
2018-10-03T21:44:35.904Z,10.21
2018-10-03T21:47:07.295Z,10.20
2018-10-03T21:49:35.896Z,10.31
2018-10-03T21:52:05.671Z,10.48
2018-10-03T21:54:34.372Z,10.60
2018-10-03T21:57:04.461Z,10.63
2018-10-03T21:59:32.986Z,10.72
2018-10-03T22:02:03.278Z,10.77
2018-10-03T22:04:31.781Z,10.82
2018-10-03T22:07:00.329Z,10.94
2018-10-03T22:09:28.879Z,10.95
2018-10-03T22:11:57.697Z,11.01
2018-10-03T22:14:26.319Z,11.15
2018-10-03T22:16:54.925Z,11.12
2018-10-03T22:19:23.928Z,11.11
2018-10-03T22:21:52.450Z,11.19
2018-10-03T22:24:20.993Z,11.34
2018-10-03T22:26:49.613Z,11.16
2018-10-03T22:29:18.293Z,11.14
2018-10-03T22:31:46.793Z,11.14
2018-10-03T22:34:15.498Z,11.22
2018-10-03T22:36:44.051Z,11.30
2018-10-03T22:39:12.523Z,11.28
2018-10-03T22:41:41.305Z,11.40
2018-10-03T22:44:09.850Z,11.32
2018-10-03T22:46:38.728Z,11.36
2018-10-03T22:49:07.681Z,11.52
2018-10-03T22:51:36.309Z,11.56
2018-10-03T22:54:06.182Z,11.43
2018-10-03T22:56:35.060Z,11.57
2018-10-03T22:59:05.678Z,11.62
2018-10-03T23:01:34.178Z,11.59
2018-10-03T23:04:03.711Z,11.71
2018-10-03T23:06:32.257Z,11.76
2018-10-03T23:09:00.774Z,11.73
2018-10-03T23:11:29.399Z,11.76
2018-10-03T23:13:57.933Z,11.68
2018-10-03T23:16:26.478Z,11.85
2018-10-03T23:18:55.035Z,11.85
2018-10-03T23:21:23.547Z,11.86
2018-10-03T23:23:52.052Z,11.84
2018-10-03T23:26:21.026Z,11.91
2018-10-03T23:28:49.527Z,11.87
2018-10-03T23:31:18.139Z,11.90
2018-10-03T23:33:46.658Z,11.94
2018-10-03T23:36:15.168Z,11.98
2018-10-03T23:38:43.698Z,12.01
2018-10-03T23:41:12.232Z,11.98
2018-10-03T23:43:40.759Z,12.00
2018-10-03T23:46:09.661Z,11.96
2018-10-03T23:48:38.143Z,12.02
2018-10-03T23:51:06.874Z,11.98
2018-10-03T23:53:35.388Z,11.99
2018-10-03T23:56:05.317Z,12.02
2018-10-03T23:58:34.149Z,12.02
